createdAt,value
2022-11-08T00:00:12.814Z,12.18
2022-11-08T00:02:39.738Z,12.14
2022-11-08T00:05:25.914Z,12.11
2022-11-08T00:08:11.333Z,12.10
2022-11-08T00:10:56.503Z,12.08
2022-11-08T00:13:41.989Z,12.06
2022-11-08T00:16:08.780Z,12.01
2022-11-08T00:18:35.658Z,11.98
2022-11-08T00:21:03.508Z,12.00
2022-11-08T00:23:30.631Z,11.98
2022-11-08T00:25:57.590Z,12.00
2022-11-08T00:28:24.293Z,11.94
2022-11-08T00:30:51.018Z,11.91
2022-11-08T00:33:17.814Z,11.90
2022-11-08T00:35:44.572Z,11.85
2022-11-08T00:38:11.307Z,11.81
2022-11-08T00:40:38.560Z,11.79
2022-11-08T00:43:05.306Z,11.79
2022-11-08T00:45:31.989Z,11.78
2022-11-08T00:47:58.744Z,11.69
2022-11-08T00:50:25.468Z,11.64
2022-11-08T00:52:52.193Z,11.63
2022-11-08T00:55:18.879Z,11.60
2022-11-08T00:58:00.948Z,11.58
2022-11-08T01:00:28.466Z,11.53
2022-11-08T01:03:14.166Z,11.48
2022-11-08T01:05:41.427Z,11.43
2022-11-08T01:08:09.092Z,11.42
2022-11-08T01:10:36.127Z,11.38
2022-11-08T01:13:03.690Z,11.37
2022-11-08T01:15:36.463Z,11.38
2022-11-08T01:18:04.945Z,11.32
2022-11-08T01:20:32.073Z,11.31
2022-11-08T01:22:59.480Z,11.29
2022-11-08T01:25:26.177Z,11.30
2022-11-08T01:27:52.878Z,11.33
2022-11-08T01:30:19.591Z,11.29
2022-11-08T01:32:46.304Z,11.30
2022-11-08T01:35:12.984Z,11.26
2022-11-08T01:37:39.700Z,11.24
2022-11-08T01:40:07.667Z,11.21
2022-11-08T01:42:34.418Z,11.17
2022-11-08T01:45:04.530Z,11.20
2022-11-08T01:47:31.313Z,11.15
2022-11-08T01:50:18.380Z,11.17
2022-11-08T01:52:51.590Z,11.16
2022-11-08T01:55:36.842Z,11.16
2022-11-08T01:58:17.805Z,11.18
2022-11-08T02:00:44.959Z,11.15
2022-11-08T02:03:17.705Z,11.13
2022-11-08T02:05:45.746Z,11.10
2022-11-08T02:08:33.571Z,11.08
2022-11-08T02:11:01.221Z,11.12
2022-11-08T02:13:31.908Z,11.12
2022-11-08T02:15:58.694Z,11.10
2022-11-08T02:18:31.324Z,11.14
2022-11-08T02:21:13.933Z,11.14
2022-11-08T02:23:51.538Z,11.13
2022-11-08T02:26:23.462Z,11.15
2022-11-08T02:28:51.242Z,11.15
2022-11-08T02:31:20.267Z,11.15
2022-11-08T02:33:48.649Z,11.14
2022-11-08T02:36:21.550Z,11.14
2022-11-08T02:38:53.820Z,11.10
2022-11-08T02:41:21.069Z,11.07
2022-11-08T02:43:48.168Z,11.06
2022-11-08T02:46:14.942Z,11.06
2022-11-08T02:48:41.660Z,11.06
2022-11-08T02:51:08.365Z,11.06
2022-11-08T02:53:35.206Z,11.07
2022-11-08T02:56:01.927Z,11.05
2022-11-08T02:58:28.640Z,11.03
2022-11-08T03:00:55.581Z,11.06
2022-11-08T03:03:22.459Z,11.05
2022-11-08T03:05:49.213Z,11.06
2022-11-08T03:08:16.270Z,11.06
2022-11-08T03:10:43.340Z,11.07
2022-11-08T03:13:10.030Z,11.02
2022-11-08T03:15:36.730Z,10.99
2022-11-08T03:18:06.991Z,10.96
2022-11-08T03:20:33.788Z,10.93
2022-11-08T03:23:04.446Z,10.98
2022-11-08T03:25:31.511Z,11.01
2022-11-08T03:28:07.080Z,11.02
2022-11-08T03:30:35.387Z,11.02
2022-11-08T03:33:02.830Z,11.03
2022-11-08T03:35:30.056Z,10.99
2022-11-08T03:37:58.167Z,10.98
2022-11-08T03:40:25.927Z,10.95
2022-11-08T03:42:55.302Z,10.88
2022-11-08T03:45:22.014Z,10.84
2022-11-08T03:47:48.762Z,10.83
2022-11-08T03:50:16.976Z,10.83
2022-11-08T03:52:53.440Z,10.85
2022-11-08T03:55:24.425Z,10.85
2022-11-08T03:57:52.025Z,10.84
2022-11-08T04:00:23.939Z,10.84
2022-11-08T04:02:53.437Z,10.85
2022-11-08T04:05:20.156Z,10.79
2022-11-08T04:07:47.200Z,10.71
2022-11-08T04:10:14.634Z,10.71
2022-11-08T04:13:01.848Z,10.75
2022-11-08T04:15:30.788Z,10.69
2022-11-08T04:18:18.050Z,10.72
2022-11-08T04:21:06.947Z,10.77
2022-11-08T04:23:36.980Z,10.81
2022-11-08T04:26:07.812Z,10.78
2022-11-08T04:28:37.531Z,10.84
2022-11-08T04:31:09.556Z,10.84
2022-11-08T04:33:36.899Z,10.81
2022-11-08T04:36:08.746Z,10.79
2022-11-08T04:38:36.274Z,10.85
2022-11-08T04:41:13.494Z,10.79
2022-11-08T04:43:40.960Z,10.83
2022-11-08T04:46:17.264Z,10.85
2022-11-08T04:48:45.700Z,10.83
2022-11-08T04:51:26.673Z,10.87
2022-11-08T04:53:56.458Z,10.89
2022-11-08T04:56:26.148Z,10.92
2022-11-08T04:58:57.312Z,10.92
2022-11-08T05:01:28.896Z,10.86
2022-11-08T05:03:56.117Z,10.90
2022-11-08T05:06:27.006Z,10.86
2022-11-08T05:08:55.923Z,10.87
2022-11-08T05:11:26.376Z,10.88
2022-11-08T05:13:53.811Z,10.90
2022-11-08T05:16:23.606Z,10.93
2022-11-08T05:18:50.957Z,10.89
2022-11-08T05:21:38.925Z,10.83
2022-11-08T05:24:09.566Z,10.79
2022-11-08T05:26:40.355Z,10.77
2022-11-08T05:29:07.072Z,10.78
2022-11-08T05:31:34.147Z,10.77
2022-11-08T05:34:01.171Z,10.74
2022-11-08T05:36:28.724Z,10.75
2022-11-08T05:38:56.652Z,10.70
2022-11-08T05:41:26.026Z,10.75
2022-11-08T05:43:55.244Z,10.74
2022-11-08T05:46:23.656Z,10.69
2022-11-08T05:48:52.498Z,10.72
2022-11-08T05:51:21.928Z,10.70
2022-11-08T05:53:49.096Z,10.68
2022-11-08T05:56:16.992Z,10.71
2022-11-08T05:58:44.645Z,10.76
2022-11-08T06:01:17.919Z,10.70
2022-11-08T06:03:46.681Z,10.73
2022-11-08T06:06:20.315Z,10.78
2022-11-08T06:08:50.754Z,10.76
2022-11-08T06:11:23.016Z,10.78
2022-11-08T06:13:50.655Z,10.87
2022-11-08T06:16:19.099Z,10.88
2022-11-08T06:18:46.000Z,10.88
2022-11-08T06:21:16.893Z,10.91
2022-11-08T06:23:44.183Z,10.93
2022-11-08T06:26:11.553Z,10.92
2022-11-08T06:28:38.472Z,10.97
2022-11-08T06:31:05.814Z,10.91
2022-11-08T06:33:33.090Z,10.93
2022-11-08T06:35:59.942Z,11.00
2022-11-08T06:38:26.731Z,11.00
2022-11-08T06:40:53.603Z,11.00
2022-11-08T06:43:20.690Z,11.04
2022-11-08T06:45:48.052Z,11.06
2022-11-08T06:48:14.899Z,11.03
2022-11-08T06:50:42.723Z,10.99
2022-11-08T06:53:13.271Z,10.99
2022-11-08T06:55:40.198Z,10.98
2022-11-08T06:58:07.268Z,10.96
2022-11-08T07:00:34.122Z,10.99
2022-11-08T07:03:03.553Z,11.00
2022-11-08T07:05:33.314Z,11.00
2022-11-08T07:08:01.490Z,10.98
2022-11-08T07:10:32.046Z,10.97
2022-11-08T07:13:05.429Z,10.95
2022-11-08T07:15:35.232Z,10.93
2022-11-08T07:18:12.349Z,10.95
2022-11-08T07:20:40.680Z,10.93
2022-11-08T07:23:09.451Z,10.97
2022-11-08T07:25:37.218Z,10.95
2022-11-08T07:28:07.596Z,10.98
2022-11-08T07:30:35.835Z,11.01
2022-11-08T07:33:03.755Z,11.01
2022-11-08T07:35:30.888Z,11.01
2022-11-08T07:37:58.210Z,11.01
2022-11-08T07:40:25.485Z,11.02
2022-11-08T07:45:40.637Z,11.09
2022-11-08T07:48:12.894Z,11.13
2022-11-08T07:50:42.249Z,11.14
2022-11-08T07:53:09.936Z,11.18
2022-11-08T07:55:38.721Z,11.25
2022-11-08T07:58:06.470Z,11.34
2022-11-08T08:00:36.753Z,11.36
2022-11-08T08:03:07.595Z,11.36
2022-11-08T08:05:38.690Z,11.41
2022-11-08T08:08:06.514Z,11.44
2022-11-08T08:10:34.220Z,11.46
2022-11-08T08:13:01.475Z,11.51
2022-11-08T08:15:28.549Z,11.54
2022-11-08T08:17:55.448Z,11.53
2022-11-08T08:20:22.189Z,11.63
2022-11-08T08:22:51.529Z,11.64
2022-11-08T08:25:19.142Z,11.70
2022-11-08T08:27:55.293Z,11.73
2022-11-08T08:30:24.550Z,11.79
2022-11-08T08:33:08.289Z,11.83
2022-11-08T08:35:39.976Z,11.88
2022-11-08T08:38:07.871Z,11.94
2022-11-08T08:40:34.765Z,11.94
2022-11-08T08:43:03.547Z,12.01
2022-11-08T08:45:32.142Z,12.03
2022-11-08T08:47:59.611Z,12.07
2022-11-08T08:50:29.870Z,12.14
2022-11-08T08:53:02.681Z,12.13
2022-11-08T08:55:30.254Z,12.19
2022-11-08T08:57:57.273Z,12.22
2022-11-08T09:03:13.029Z,12.29
2022-11-08T09:05:43.820Z,12.33
2022-11-08T09:08:11.854Z,12.38
2022-11-08T09:10:39.015Z,12.44
2022-11-08T09:13:05.892Z,12.49
2022-11-08T09:15:33.384Z,12.53
2022-11-08T09:18:00.831Z,12.59
2022-11-08T09:20:27.763Z,12.67
2022-11-08T09:22:54.541Z,12.73
2022-11-08T09:25:21.394Z,12.77
2022-11-08T09:27:48.178Z,12.78
2022-11-08T09:30:14.910Z,12.85
2022-11-08T09:35:29.079Z,12.99
2022-11-08T09:37:56.276Z,13.03
2022-11-08T09:41:26.296Z,13.06
2022-11-08T09:44:22.501Z,13.08
2022-11-08T09:46:55.653Z,13.15
2022-11-08T09:49:47.153Z,13.30
2022-11-08T09:52:24.736Z,13.41
2022-11-08T09:55:05.249Z,13.51
2022-11-08T09:58:03.788Z,13.64
2022-11-08T10:00:31.320Z,13.69
2022-11-08T10:02:58.146Z,13.67
2022-11-08T10:05:39.176Z,13.76
2022-11-08T10:08:38.940Z,13.79
2022-11-08T10:11:49.907Z,13.92
2022-11-08T10:14:54.516Z,13.96
2022-11-08T10:17:59.156Z,14.03
2022-11-08T10:20:36.509Z,14.07
2022-11-08T10:23:36.719Z,14.13
2022-11-08T10:26:25.729Z,14.28
2022-11-08T10:29:01.921Z,14.39
2022-11-08T10:31:35.160Z,14.46
2022-11-08T10:34:13.771Z,14.56
2022-11-08T10:36:58.090Z,14.67
2022-11-08T10:39:29.980Z,14.70
2022-11-08T10:42:06.195Z,14.71
2022-11-08T10:44:35.548Z,14.73
2022-11-08T10:47:07.561Z,14.71
2022-11-08T10:49:40.639Z,14.69
2022-11-08T10:52:44.227Z,14.68
2022-11-08T10:55:48.324Z,14.68
2022-11-08T10:58:35.935Z,14.65
2022-11-08T11:01:22.691Z,14.63
2022-11-08T11:03:52.775Z,14.65
2022-11-08T11:06:31.176Z,14.61
2022-11-08T11:09:19.241Z,14.68
2022-11-08T11:11:46.307Z,14.80
2022-11-08T11:14:22.878Z,14.89
2022-11-08T11:17:15.394Z,14.93
2022-11-08T11:19:53.744Z,14.91
2022-11-08T11:22:33.211Z,14.92
2022-11-08T11:25:16.488Z,14.89
2022-11-08T11:27:50.197Z,14.87
2022-11-08T11:30:25.643Z,14.93
2022-11-08T11:33:02.221Z,14.94
2022-11-08T11:35:43.087Z,15.02
2022-11-08T11:38:53.675Z,15.09
2022-11-08T11:41:34.282Z,15.09
2022-11-08T11:44:25.463Z,15.08
2022-11-08T11:47:01.112Z,15.16
2022-11-08T11:49:37.921Z,15.25
2022-11-08T11:52:17.524Z,15.29
2022-11-08T11:54:48.035Z,15.28
2022-11-08T11:57:40.889Z,15.31
2022-11-08T12:00:13.047Z,15.37
2022-11-08T12:03:01.599Z,15.39
2022-11-08T12:06:10.858Z,15.43
2022-11-08T12:09:21.286Z,15.48
2022-11-08T12:11:59.285Z,15.48
2022-11-08T12:14:48.359Z,15.43
2022-11-08T12:18:06.055Z,15.39
2022-11-08T12:20:52.017Z,15.30
2022-11-08T12:23:47.822Z,15.29
2022-11-08T12:26:54.702Z,15.27
2022-11-08T12:29:59.251Z,15.29
2022-11-08T12:32:55.197Z,15.26
2022-11-08T12:35:38.897Z,15.20
2022-11-08T12:38:31.116Z,15.16
2022-11-08T12:41:15.765Z,15.15
2022-11-08T12:44:23.352Z,15.14
2022-11-08T12:47:44.743Z,15.14
2022-11-08T12:51:05.318Z,15.19
2022-11-08T12:54:08.949Z,15.25
2022-11-08T12:56:43.771Z,15.27
2022-11-08T12:59:42.540Z,15.34
2022-11-08T13:02:22.321Z,15.44
2022-11-08T13:04:59.703Z,15.54
2022-11-08T13:07:48.836Z,15.61
2022-11-08T13:10:22.715Z,15.66
2022-11-08T13:13:18.963Z,15.74
2022-11-08T13:16:15.804Z,15.76
2022-11-08T13:18:47.315Z,15.81
2022-11-08T13:21:34.179Z,15.81
2022-11-08T13:24:38.056Z,15.76
2022-11-08T13:27:31.544Z,15.75
2022-11-08T13:30:24.925Z,15.80
2022-11-08T13:33:29.144Z,15.80
2022-11-08T13:36:38.458Z,15.80
2022-11-08T13:39:34.008Z,15.83
2022-11-08T13:42:38.775Z,15.86
2022-11-08T13:45:08.490Z,15.96
2022-11-08T13:47:36.240Z,16.08
2022-11-08T13:50:27.625Z,16.24
2022-11-08T13:53:10.864Z,16.29
2022-11-08T13:55:43.566Z,16.31
2022-11-08T13:58:38.224Z,16.31
2022-11-08T14:01:09.508Z,16.30
2022-11-08T14:03:36.177Z,16.25
2022-11-08T14:06:41.381Z,16.19
2022-11-08T14:09:33.579Z,16.20
2022-11-08T14:12:23.112Z,16.24
2022-11-08T14:15:18.570Z,16.23
2022-11-08T14:17:56.311Z,16.19
2022-11-08T14:20:22.936Z,16.15
2022-11-08T14:22:50.587Z,16.13
2022-11-08T14:25:28.674Z,16.13
2022-11-08T14:27:55.543Z,16.13
2022-11-08T14:30:23.989Z,16.11
2022-11-08T14:33:19.162Z,16.05
2022-11-08T14:36:02.712Z,16.01
2022-11-08T14:38:34.059Z,15.92
2022-11-08T14:41:05.040Z,15.85
2022-11-08T14:43:43.458Z,15.80
2022-11-08T14:46:26.258Z,15.76
2022-11-08T14:48:56.662Z,15.68
2022-11-08T14:51:26.096Z,15.66
2022-11-08T14:53:55.270Z,15.61
2022-11-08T14:56:29.096Z,15.59
2022-11-08T14:58:56.126Z,15.57
2022-11-08T15:01:26.587Z,15.58
2022-11-08T15:03:58.787Z,15.56
2022-11-08T15:06:36.509Z,15.57
2022-11-08T15:09:05.570Z,15.55
2022-11-08T15:11:39.696Z,15.57
2022-11-08T15:14:23.286Z,15.60
2022-11-08T15:16:56.365Z,15.57
2022-11-08T15:19:42.539Z,15.56
2022-11-08T15:22:30.906Z,15.58
2022-11-08T15:25:16.901Z,15.62
2022-11-08T15:27:54.384Z,15.61
2022-11-08T15:30:30.193Z,15.57
2022-11-08T15:32:57.210Z,15.59
2022-11-08T15:35:34.003Z,15.54
2022-11-08T15:38:32.739Z,15.51
2022-11-08T15:41:03.662Z,15.51
2022-11-08T15:43:33.382Z,15.48
2022-11-08T15:46:02.799Z,15.46
2022-11-08T15:48:30.410Z,15.43
2022-11-08T15:50:58.252Z,15.40
2022-11-08T15:53:28.208Z,15.36
2022-11-08T15:56:01.729Z,15.34
2022-11-08T15:58:33.406Z,15.27
2022-11-08T16:01:02.838Z,15.24
2022-11-08T16:03:31.088Z,15.18
2022-11-08T16:05:58.230Z,15.14
2022-11-08T16:08:25.476Z,15.18
2022-11-08T16:10:58.572Z,15.13
2022-11-08T16:13:39.372Z,15.07
2022-11-08T16:16:15.491Z,14.97
2022-11-08T16:18:44.785Z,14.94
2022-11-08T16:21:14.399Z,14.92
2022-11-08T16:23:41.982Z,14.89
2022-11-08T16:26:16.875Z,14.87
2022-11-08T16:28:44.640Z,14.87
2022-11-08T16:31:16.123Z,14.80
2022-11-08T16:33:45.819Z,14.79
2022-11-08T16:36:19.037Z,14.74
2022-11-08T16:38:52.531Z,14.70
2022-11-08T16:41:20.886Z,14.66
2022-11-08T16:43:47.886Z,14.59
2022-11-08T16:46:16.458Z,14.54
2022-11-08T16:48:52.991Z,14.55
2022-11-08T16:51:22.098Z,14.49
2022-11-08T16:53:49.489Z,14.48
2022-11-08T16:56:16.618Z,14.45
2022-11-08T16:58:44.385Z,14.43
2022-11-08T17:01:20.831Z,14.43
2022-11-08T17:03:47.743Z,14.38
2022-11-08T17:06:18.160Z,14.38
2022-11-08T17:08:48.195Z,14.37
2022-11-08T17:11:22.976Z,14.39
2022-11-08T17:13:52.520Z,14.44
2022-11-08T17:16:20.046Z,14.47
2022-11-08T17:18:52.526Z,14.47
2022-11-08T17:21:43.489Z,14.48
2022-11-08T17:24:08.003Z,14.46
2022-11-08T17:26:34.892Z,14.42
2022-11-08T17:29:01.680Z,14.36
2022-11-08T17:31:28.392Z,14.32
2022-11-08T17:33:55.959Z,14.26
2022-11-08T17:36:23.433Z,14.25
2022-11-08T17:38:50.548Z,14.25
2022-11-08T17:41:17.611Z,14.23
2022-11-08T17:43:44.681Z,14.24
2022-11-08T17:46:12.331Z,14.21
2022-11-08T17:48:40.130Z,14.17
2022-11-08T17:51:08.157Z,14.15
2022-11-08T17:53:36.237Z,14.13
2022-11-08T17:56:06.154Z,14.18
2022-11-08T17:58:34.635Z,14.16
2022-11-08T18:01:04.852Z,14.14
2022-11-08T18:03:33.761Z,14.12
2022-11-08T18:06:05.540Z,14.11
2022-11-08T18:08:34.590Z,14.12
2022-11-08T18:11:02.181Z,14.11
2022-11-08T18:13:30.273Z,14.05
2022-11-08T18:16:13.321Z,14.04
2022-11-08T18:18:41.363Z,14.02
2022-11-08T18:21:09.443Z,14.02
2022-11-08T18:23:39.132Z,14.07
2022-11-08T18:26:06.031Z,14.08
2022-11-08T18:28:33.219Z,14.10
2022-11-08T18:31:09.233Z,14.11
2022-11-08T18:33:38.038Z,14.12
2022-11-08T18:36:06.701Z,14.12
2022-11-08T18:38:35.519Z,14.11
2022-11-08T18:41:03.338Z,14.17
2022-11-08T18:43:30.076Z,14.17
2022-11-08T18:45:56.838Z,14.17
2022-11-08T18:48:23.800Z,14.17
2022-11-08T18:50:50.944Z,14.20
2022-11-08T18:53:17.825Z,14.22
2022-11-08T18:55:45.382Z,14.20
2022-11-08T18:58:12.150Z,14.22
2022-11-08T19:00:38.842Z,14.25
2022-11-08T19:03:05.549Z,14.28
2022-11-08T19:05:32.737Z,14.32
2022-11-08T19:07:59.768Z,14.40
2022-11-08T19:10:26.628Z,14.46
2022-11-08T19:12:53.329Z,14.45
2022-11-08T19:15:22.280Z,14.42
2022-11-08T19:17:53.774Z,14.42
2022-11-08T19:20:23.924Z,14.45
2022-11-08T19:22:54.746Z,14.46
2022-11-08T19:25:21.502Z,14.46
2022-11-08T19:27:48.289Z,14.49
2022-11-08T19:30:15.217Z,14.49
2022-11-08T19:32:41.999Z,14.52
2022-11-08T19:35:08.898Z,14.52
2022-11-08T19:37:36.004Z,14.52
2022-11-08T19:40:02.959Z,14.54
2022-11-08T19:42:30.293Z,14.59
2022-11-08T19:44:56.997Z,14.65
2022-11-08T19:47:23.717Z,14.66
2022-11-08T19:49:50.447Z,14.63
2022-11-08T19:52:17.158Z,14.62
2022-11-08T19:54:43.876Z,14.70
2022-11-08T19:57:10.690Z,14.77
2022-11-08T19:59:37.379Z,14.84
2022-11-08T20:02:04.248Z,14.86
2022-11-08T20:04:31.147Z,14.83
2022-11-08T20:06:57.995Z,14.84
2022-11-08T20:09:29.952Z,14.88
2022-11-08T20:11:57.660Z,14.91
2022-11-08T20:14:24.591Z,14.88
2022-11-08T20:16:53.720Z,14.85
2022-11-08T20:19:21.224Z,14.88
2022-11-08T20:21:48.643Z,14.87
2022-11-08T20:24:16.391Z,14.82
2022-11-08T20:26:43.289Z,14.84
2022-11-08T20:29:10.757Z,14.84
2022-11-08T20:31:38.928Z,14.88
2022-11-08T20:34:09.844Z,14.87
2022-11-08T20:36:37.791Z,14.88
2022-11-08T20:39:08.222Z,14.94
2022-11-08T20:41:37.463Z,14.96
2022-11-08T20:44:06.484Z,14.94
2022-11-08T20:46:34.586Z,14.98
2022-11-08T20:49:04.211Z,15.00
2022-11-08T20:51:31.953Z,14.99
2022-11-08T20:54:00.451Z,14.97
2022-11-08T20:56:28.903Z,14.97
2022-11-08T20:58:56.084Z,15.00
2022-11-08T21:01:27.959Z,15.01
2022-11-08T21:03:56.235Z,15.00
2022-11-08T21:06:27.089Z,14.99
2022-11-08T21:08:59.893Z,14.99
2022-11-08T21:11:30.258Z,14.97
2022-11-08T21:13:58.156Z,14.96
2022-11-08T21:16:46.962Z,14.93
2022-11-08T21:19:11.733Z,14.88
2022-11-08T21:21:38.515Z,14.83
2022-11-08T21:24:05.603Z,14.77
2022-11-08T21:26:36.207Z,14.74
2022-11-08T21:29:05.155Z,14.73
2022-11-08T21:31:33.308Z,14.71
2022-11-08T21:34:00.513Z,14.64
2022-11-08T21:36:28.982Z,14.58
2022-11-08T21:38:55.951Z,14.54
2022-11-08T21:41:22.671Z,14.53
2022-11-08T21:43:49.555Z,14.50
2022-11-08T21:46:25.622Z,14.47
2022-11-08T21:48:58.849Z,14.40
2022-11-08T21:51:26.705Z,14.36
2022-11-08T21:53:56.069Z,14.32
2022-11-08T21:56:33.436Z,14.31
2022-11-08T21:59:01.702Z,14.30
2022-11-08T22:01:30.553Z,14.31
2022-11-08T22:03:59.498Z,14.30
2022-11-08T22:06:28.046Z,14.26
2022-11-08T22:08:54.900Z,14.22
2022-11-08T22:11:22.019Z,14.19
2022-11-08T22:13:48.862Z,14.18
2022-11-08T22:16:15.706Z,14.13
2022-11-08T22:19:03.580Z,14.11
2022-11-08T22:21:38.675Z,14.07
2022-11-08T22:24:18.261Z,14.00
2022-11-08T22:26:45.893Z,13.99
2022-11-08T22:29:13.590Z,13.96
2022-11-08T22:31:40.968Z,13.93
2022-11-08T22:34:09.524Z,13.88
2022-11-08T22:36:44.002Z,13.84
2022-11-08T22:39:17.504Z,13.80
2022-11-08T22:41:46.285Z,13.77
2022-11-08T22:44:13.604Z,13.75
2022-11-08T22:46:45.592Z,13.69
2022-11-08T22:49:13.559Z,13.69
2022-11-08T22:51:41.777Z,13.66
2022-11-08T22:54:09.633Z,13.66
2022-11-08T22:56:36.914Z,13.64
2022-11-08T22:59:04.280Z,13.63
2022-11-08T23:01:31.074Z,13.59
2022-11-08T23:03:57.823Z,13.58
2022-11-08T23:06:24.559Z,13.56
2022-11-08T23:08:51.511Z,13.55
2022-11-08T23:11:36.973Z,13.55
2022-11-08T23:14:23.275Z,13.55
2022-11-08T23:16:50.162Z,13.54
2022-11-08T23:19:41.753Z,13.53
2022-11-08T23:22:35.635Z,13.53
2022-11-08T23:25:02.817Z,13.46
2022-11-08T23:27:48.976Z,13.44
2022-11-08T23:30:37.121Z,13.48
2022-11-08T23:33:06.786Z,13.47
2022-11-08T23:35:34.119Z,13.45
2022-11-08T23:38:00.817Z,13.45
2022-11-08T23:40:46.595Z,13.42
2022-11-08T23:43:38.945Z,13.41
2022-11-08T23:46:10.227Z,13.42
2022-11-08T23:48:38.760Z,13.38
2022-11-08T23:51:06.944Z,13.37
2022-11-08T23:53:36.778Z,13.37
2022-11-08T23:56:04.102Z,13.36
2022-11-08T23:58:32.236Z,13.35
